Time,TemperatureF,DewpointF,PressureIn,WindDirection,WindDirectionDegrees,WindSpeedMPH,WindSpeedGustMPH,Humidity,HourlyPrecipIn,Conditions,Clouds,dailyrainin,SolarRadiationWatts/m^2,SoftwareType,DateUTC
2013-06-29 00:02:00,51.6,49.6,30.15,WSW,238,2.3,2.3,93,0.00,OVC,,0.00,0.0,WeatherDisplay:10.37,2013-06-29 08:02:00,
2013-06-29 00:07:00,51.6,49.6,30.15,WSW,238,2.3,2.3,93,0.00,OVC,,0.00,0.0,WeatherDisplay:10.37,2013-06-29 08:07:00,
2013-06-29 00:12:00,51.6,49.6,30.15,SW,234,0.0,0.1,93,0.00,OVC,,0.00,0.0,WeatherDisplay:10.37,2013-06-29 08:12:00,
2013-06-29 00:17:00,51.5,49.8,30.15,SW,234,1.2,1.2,94,0.00,OVC,,0.00,0.0,WeatherDisplay:10.37,2013-06-29 08:17:00,
2013-06-29 00:22:00,51.5,49.8,30.15,South,173,3.5,3.5,94,0.00,OVC,,0.00,0.0,WeatherDisplay:10.37,2013-06-29 08:22:00,
2013-06-29 00:27:00,51.5,49.8,30.15,South,173,0.0,0.0,94,0.00,OVC,,0.00,0.0,WeatherDisplay:10.37,2013-06-29 08:27:00,
2013-06-29 00:32:00,51.5,49.8,30.15,South,173,1.0,1.0,94,0.00,OVC,,0.00,0.0,WeatherDisplay:10.37,2013-06-29 08:32:00,
2013-06-29 00:37:00,51.5,49.8,30.15,South,176,2.3,2.3,94,0.00,OVC,,0.00,0.0,WeatherDisplay:10.37,2013-06-29 08:37:00,
2013-06-29 00:42:00,51.5,49.8,30.15,SSW,199,1.2,1.2,94,0.00,OVC,,0.00,0.0,WeatherDisplay:10.37,2013-06-29 08:42:00,
2013-06-29 00:47:00,51.5,49.8,30.15,South,186,0.0,0.0,94,0.00,OVC,,0.00,0.0,WeatherDisplay:10.37,2013-06-29 08:47:00,
2013-06-29 00:52:00,51.5,49.8,30.15,South,186,0.0,0.0,94,0.00,OVC,,0.00,0.0,WeatherDisplay:10.37,2013-06-29 08:52:00,
2013-06-29 00:57:00,51.5,49.8,30.15,South,186,1.2,1.2,94,0.00,OVC,,0.00,0.0,WeatherDisplay:10.37,2013-06-29 08:57:00,
2013-06-29 01:02:00,51.5,49.8,30.14,South,186,1.0,1.0,94,0.00,OVC,,0.00,0.0,WeatherDisplay:10.37,2013-06-29 09:02:00,
2013-06-29 01:07:00,51.5,49.8,30.15,South,186,1.0,1.0,94,0.00,OVC,,0.00,0.0,WeatherDisplay:10.37,2013-06-29 09:07:00,
2013-06-29 01:12:00,51.5,49.8,30.15,South,186,2.3,0.0,94,0.00,OVC,,0.00,0.0,WeatherDisplay:10.37,2013-06-29 09:12:00,
2013-06-29 01:17:00,51.5,49.8,30.15,South,186,0.0,0.0,94,0.00,OVC,,0.00,0.0,WeatherDisplay:10.37,2013-06-29 09:17:00,
2013-06-29 01:22:00,51.5,49.8,30.14,South,186,1.0,1.0,94,0.00,OVC,,0.00,0.0,WeatherDisplay:10.37,2013-06-29 09:22:00,
2013-06-29 01:27:00,51.5,49.8,30.14,South,186,0.0,0.0,94,0.00,OVC,,0.00,0.0,WeatherDisplay:10.37,2013-06-29 09:27:00,
2013-06-29 01:32:00,51.5,49.8,30.14,South,186,2.3,0.0,94,0.00,OVC,,0.00,0.0,WeatherDisplay:10.37,2013-06-29 09:32:00,
2013-06-29 01:37:00,51.4,49.7,30.14,South,186,1.2,1.2,94,0.00,OVC,,0.00,0.0,WeatherDisplay:10.37,2013-06-29 09:37:00,
2013-06-29 01:42:00,51.4,49.7,30.14,South,186,2.3,2.3,94,0.00,OVC,,0.00,0.0,WeatherDisplay:10.37,2013-06-29 09:42:00,
2013-06-29 01:47:00,51.4,49.7,30.14,South,185,4.6,4.6,94,0.00,OVC,,0.00,0.0,WeatherDisplay:10.37,2013-06-29 09:47:00,
2013-06-29 01:52:00,51.4,49.7,30.14,South,182,1.2,1.2,94,0.00,OVC,,0.00,0.0,WeatherDisplay:10.37,2013-06-29 09:52:00,
2013-06-29 01:57:00,51.4,49.7,30.14,South,177,3.5,0.0,94,0.00,OVC,,0.00,0.0,WeatherDisplay:10.37,2013-06-29 09:57:00,
2013-06-29 02:02:00,51.5,49.8,30.14,South,178,3.5,0.0,94,0.00,OVC,,0.00,0.0,WeatherDisplay:10.37,2013-06-29 10:02:00,
2013-06-29 02:07:00,51.4,49.7,30.14,South,178,2.0,2.0,94,0.00,OVC,,0.00,0.0,WeatherDisplay:10.37,2013-06-29 10:07:00,
2013-06-29 02:12:00,51.5,49.8,30.14,South,178,2.3,2.3,94,0.00,OVC,,0.00,0.0,WeatherDisplay:10.37,2013-06-29 10:12:00,
2013-06-29 02:17:00,51.5,49.8,30.14,SSW,197,2.3,2.3,94,0.00,OVC,,0.00,0.0,WeatherDisplay:10.37,2013-06-29 10:17:00,
2013-06-29 02:22:00,51.5,49.8,30.14,South,191,3.5,3.5,94,0.00,OVC,,0.00,0.0,WeatherDisplay:10.37,2013-06-29 10:22:00,
2013-06-29 02:27:00,51.6,49.9,30.14,SSW,202,3.5,3.5,94,0.00,OVC,,0.00,0.0,WeatherDisplay:10.37,2013-06-29 10:27:00,
2013-06-29 02:32:00,51.6,49.9,30.13,SSW,202,3.5,3.5,94,0.00,OVC,,0.00,0.0,WeatherDisplay:10.37,2013-06-29 10:32:00,
2013-06-29 02:37:00,51.6,49.9,30.14,SW,221,2.3,2.3,94,0.00,OVC,,0.00,0.0,WeatherDisplay:10.37,2013-06-29 10:37:00,
2013-06-29 02:42:00,51.6,49.9,30.13,West,263,1.2,1.2,94,0.00,OVC,,0.00,0.0,WeatherDisplay:10.37,2013-06-29 10:42:00,
2013-06-29 02:47:00,51.6,49.9,30.14,South,170,2.3,2.3,94,0.00,OVC,,0.00,0.0,WeatherDisplay:10.37,2013-06-29 10:47:00,
2013-06-29 02:52:00,51.6,49.9,30.13,NNW,345,3.5,3.5,94,0.00,OVC,,0.00,0.0,WeatherDisplay:10.37,2013-06-29 10:52:00,
2013-06-29 02:57:00,51.6,49.9,30.13,NNW,345,2.3,2.3,94,0.00,OVC,,0.00,0.0,WeatherDisplay:10.37,2013-06-29 10:57:00,
2013-06-29 03:02:00,51.6,49.9,30.13,SSW,201,2.3,2.3,94,0.00,OVC,,0.00,0.0,WeatherDisplay:10.37,2013-06-29 11:02:00,
2013-06-29 03:07:00,51.6,49.9,30.13,SSE,163,3.5,3.5,94,0.00,OVC,,0.00,0.0,WeatherDisplay:10.37,2013-06-29 11:07:00,
2013-06-29 03:12:00,51.6,49.9,30.13,SSW,197,1.2,0.0,94,0.00,OVC,,0.00,0.0,WeatherDisplay:10.37,2013-06-29 11:12:00,
2013-06-29 03:17:00,51.6,49.6,30.13,SSW,198,2.3,2.3,93,0.00,OVC,,0.00,0.0,WeatherDisplay:10.37,2013-06-29 11:17:00,
2013-06-29 03:22:00,51.6,49.6,30.13,SSW,198,3.5,3.5,93,0.00,OVC,,0.00,0.0,WeatherDisplay:10.37,2013-06-29 11:22:00,
2013-06-29 03:27:00,51.6,49.6,30.13,SSW,209,3.5,3.5,93,0.00,OVC,,0.00,0.0,WeatherDisplay:10.37,2013-06-29 11:27:00,
2013-06-29 03:32:00,51.5,49.5,30.13,SSW,209,1.2,1.2,93,0.00,OVC,,0.00,0.0,WeatherDisplay:10.37,2013-06-29 11:32:00,
2013-06-29 03:37:00,51.5,49.5,30.13,SSW,202,2.3,2.3,93,0.00,OVC,,0.00,0.0,WeatherDisplay:10.37,2013-06-29 11:37:00,
2013-06-29 03:42:00,51.4,49.4,30.12,SSE,157,2.3,2.3,93,0.00,OVC,,0.00,0.0,WeatherDisplay:10.37,2013-06-29 11:42:00,
2013-06-29 03:47:00,51.4,49.4,30.12,South,184,2.3,2.3,93,0.00,OVC,,0.00,0.0,WeatherDisplay:10.37,2013-06-29 11:47:00,
2013-06-29 03:52:00,51.3,49.3,30.12,South,178,3.0,3.0,93,0.00,OVC,,0.00,0.0,WeatherDisplay:10.37,2013-06-29 11:52:00,
2013-06-29 03:57:00,51.2,49.2,30.12,SSW,203,2.3,2.9,93,0.00,OVC,,0.00,0.0,WeatherDisplay:10.37,2013-06-29 11:57:00,
2013-06-29 04:02:00,51.2,49.5,30.12,South,188,3.5,3.5,94,0.00,OVC,,0.00,0.0,WeatherDisplay:10.37,2013-06-29 12:02:00,
2013-06-29 04:07:00,51.2,49.5,30.12,SSE,164,5.0,5.0,94,0.00,OVC,,0.00,0.0,WeatherDisplay:10.37,2013-06-29 12:07:00,
2013-06-29 04:12:00,51.2,49.5,30.12,South,177,4.6,4.6,94,0.00,OVC,,0.00,0.0,WeatherDisplay:10.37,2013-06-29 12:12:00,
2013-06-29 04:18:00,51.2,49.5,30.12,SSW,201,0.0,0.3,94,0.00,OVC,,0.00,0.0,WeatherDisplay:10.37,2013-06-29 12:18:00,
2013-06-29 04:23:00,51.2,49.5,30.12,South,178,2.3,2.3,94,0.00,OVC,,0.00,0.0,WeatherDisplay:10.37,2013-06-29 12:23:00,
2013-06-29 04:28:00,51.2,49.5,30.12,SSW,212,1.2,1.2,94,0.00,OVC,,0.00,0.0,WeatherDisplay:10.37,2013-06-29 12:28:00,
2013-06-29 04:33:00,51.3,49.6,30.12,SSW,212,1.2,0.0,94,0.00,OVC,,0.00,0.0,WeatherDisplay:10.37,2013-06-29 12:33:00,
2013-06-29 04:38:00,51.3,49.6,30.12,SSW,212,0.0,0.0,94,0.00,OVC,,0.00,0.0,WeatherDisplay:10.37,2013-06-29 12:38:00,
2013-06-29 04:43:00,51.3,49.6,30.12,SSW,212,0.0,0.0,94,0.00,OVC,,0.00,0.0,WeatherDisplay:10.37,2013-06-29 12:43:00,
2013-06-29 04:48:00,51.3,49.6,30.12,SSW,212,1.2,1.2,94,0.00,OVC,,0.00,0.0,WeatherDisplay:10.37,2013-06-29 12:48:00,
2013-06-29 04:53:00,51.3,49.6,30.11,South,172,1.2,1.2,94,0.00,OVC,,0.00,5.0,WeatherDisplay:10.37,2013-06-29 12:53:00,
2013-06-29 04:58:00,51.2,49.5,30.11,South,172,0.0,0.0,94,0.00,OVC,,0.00,5.0,WeatherDisplay:10.37,2013-06-29 12:58:00,
2013-06-29 05:03:00,51.2,49.5,30.11,South,172,0.0,0.0,94,0.00,OVC,,0.00,7.0,WeatherDisplay:10.37,2013-06-29 13:03:00,
2013-06-29 05:08:00,51.1,49.4,30.11,South,173,0.0,0.0,94,0.00,OVC,,0.00,9.0,WeatherDisplay:10.37,2013-06-29 13:08:00,
2013-06-29 05:13:00,51.1,49.4,30.11,WSW,240,3.5,3.5,94,0.00,OVC,,0.00,12.0,WeatherDisplay:10.37,2013-06-29 13:13:00,
2013-06-29 05:18:00,51.1,49.4,30.11,WSW,240,0.0,0.0,94,0.00,OVC,,0.00,14.0,WeatherDisplay:10.37,2013-06-29 13:18:00,
2013-06-29 05:23:00,51.0,49.3,30.11,WSW,240,1.2,0.0,94,0.00,OVC,,0.00,18.0,WeatherDisplay:10.37,2013-06-29 13:23:00,
2013-06-29 05:28:00,51.0,49.3,30.10,WSW,255,3.5,3.5,94,0.00,OVC,,0.00,23.0,WeatherDisplay:10.37,2013-06-29 13:28:00,
2013-06-29 05:33:00,51.0,49.3,30.10,WSW,255,1.2,1.2,94,0.00,OVC,,0.00,28.0,WeatherDisplay:10.37,2013-06-29 13:33:00,
2013-06-29 05:38:00,51.0,49.6,30.11,WSW,255,1.0,0.0,95,0.00,OVC,,0.00,33.0,WeatherDisplay:10.37,2013-06-29 13:38:00,
2013-06-29 05:43:00,51.1,49.7,30.11,WSW,256,0.0,0.0,95,0.00,OVC,,0.00,35.0,WeatherDisplay:10.37,2013-06-29 13:43:00,
2013-06-29 05:48:00,51.2,49.8,30.11,South,177,0.0,0.0,95,0.00,OVC,,0.00,33.0,WeatherDisplay:10.37,2013-06-29 13:48:00,
2013-06-29 05:53:00,51.2,49.5,30.11,South,177,1.2,1.2,94,0.00,OVC,,0.00,37.0,WeatherDisplay:10.37,2013-06-29 13:53:00,
2013-06-29 05:58:00,51.1,49.4,30.11,South,177,0.0,0.0,94,0.00,OVC,,0.00,42.0,WeatherDisplay:10.37,2013-06-29 13:58:00,
2013-06-29 06:03:00,51.1,49.4,30.11,South,177,0.0,0.0,94,0.00,SCT,,0.00,49.0,WeatherDisplay:10.37,2013-06-29 14:03:00,
2013-06-29 06:08:00,51.2,49.5,30.11,South,177,0.0,0.0,94,0.00,SCT,,0.00,51.0,WeatherDisplay:10.37,2013-06-29 14:08:00,
2013-06-29 06:13:00,51.1,49.4,30.11,South,176,0.0,0.0,94,0.00,SCT,,0.00,42.0,WeatherDisplay:10.37,2013-06-29 14:13:00,
2013-06-29 06:18:00,51.2,49.8,30.10,South,177,0.0,0.0,95,0.00,SCT,,0.00,51.0,WeatherDisplay:10.37,2013-06-29 14:18:00,
2013-06-29 06:23:00,51.2,49.8,30.10,South,177,1.2,1.2,95,0.00,SCT,,0.00,53.0,WeatherDisplay:10.37,2013-06-29 14:23:00,
2013-06-29 06:28:00,51.3,49.9,30.10,South,186,0.0,0.0,95,0.00,SCT,,0.00,62.0,WeatherDisplay:10.37,2013-06-29 14:28:00,
2013-06-29 06:33:00,51.5,50.1,30.10,South,186,0.0,0.0,95,0.00,SCT,,0.00,67.0,WeatherDisplay:10.37,2013-06-29 14:33:00,
2013-06-29 06:38:00,51.6,49.9,30.10,South,186,1.2,1.2,94,0.00,SCT,,0.00,97.0,WeatherDisplay:10.37,2013-06-29 14:38:00,
2013-06-29 06:43:00,51.7,50.0,30.09,South,186,1.2,0.0,94,0.00,SCT,,0.00,116.0,WeatherDisplay:10.37,2013-06-29 14:43:00,
2013-06-29 06:48:00,51.9,50.2,30.10,West,268,2.3,2.3,94,0.00,SCT,,0.00,144.0,WeatherDisplay:10.37,2013-06-29 14:48:00,
2013-06-29 06:53:00,51.9,49.9,30.09,SW,228,1.2,1.2,93,0.00,SCT,,0.00,107.0,WeatherDisplay:10.37,2013-06-29 14:53:00,
2013-06-29 06:58:00,52.0,50.0,30.10,SW,228,0.0,0.0,93,0.00,SCT,,0.00,120.0,WeatherDisplay:10.37,2013-06-29 14:58:00,
2013-06-29 07:03:00,52.0,50.0,30.10,WSW,257,0.0,0.0,93,0.00,FEW,,0.00,109.0,WeatherDisplay:10.37,2013-06-29 15:03:00,
2013-06-29 07:08:00,52.1,50.1,30.10,WSW,257,0.0,0.0,93,0.00,FEW,,0.00,114.0,WeatherDisplay:10.37,2013-06-29 15:08:00,
2013-06-29 07:13:00,52.2,50.2,30.10,WSW,257,0.0,0.0,93,0.00,FEW,,0.00,109.0,WeatherDisplay:10.37,2013-06-29 15:13:00,
2013-06-29 07:18:00,52.3,50.0,30.10,WSW,257,2.3,2.3,92,0.00,FEW,,0.00,113.0,WeatherDisplay:10.37,2013-06-29 15:18:00,
2013-06-29 07:23:00,52.3,50.0,30.10,West,281,1.2,0.0,92,0.00,FEW,,0.00,114.0,WeatherDisplay:10.37,2013-06-29 15:23:00,
2013-06-29 07:28:00,52.4,50.1,30.10,WSW,252,2.3,0.0,92,0.00,FEW,,0.00,114.0,WeatherDisplay:10.37,2013-06-29 15:28:00,
2013-06-29 07:33:00,52.5,49.9,30.09,WSW,252,1.2,1.2,91,0.00,FEW,,0.00,114.0,WeatherDisplay:10.37,2013-06-29 15:33:00,
2013-06-29 07:38:00,52.5,49.9,30.09,SSW,192,2.3,2.3,91,0.00,FEW,,0.00,111.0,WeatherDisplay:10.37,2013-06-29 15:38:00,
2013-06-29 07:43:00,52.5,49.9,30.09,SSW,194,2.3,2.3,91,0.00,FEW,,0.00,114.0,WeatherDisplay:10.37,2013-06-29 15:43:00,
2013-06-29 07:48:00,52.6,50.0,30.09,WSW,246,1.2,0.0,91,0.00,FEW,,0.00,128.0,WeatherDisplay:10.37,2013-06-29 15:48:00,
2013-06-29 07:53:00,52.6,50.0,30.09,WSW,246,1.2,1.2,91,0.00,FEW,,0.00,130.0,WeatherDisplay:10.37,2013-06-29 15:53:00,
2013-06-29 07:58:00,52.6,50.0,30.09,WSW,246,0.0,0.0,91,0.00,FEW,,0.00,123.0,WeatherDisplay:10.37,2013-06-29 15:58:00,
2013-06-29 08:03:00,52.6,50.0,30.09,South,187,2.3,2.3,91,0.00,OVC,,0.00,128.0,WeatherDisplay:10.37,2013-06-29 16:03:00,
2013-06-29 08:08:00,52.6,50.0,30.09,South,187,2.3,2.3,91,0.00,OVC,,0.00,135.0,WeatherDisplay:10.37,2013-06-29 16:08:00,
2013-06-29 08:13:00,52.6,49.8,30.09,South,187,1.2,1.2,90,0.00,OVC,,0.00,146.0,WeatherDisplay:10.37,2013-06-29 16:13:00,
2013-06-29 08:18:00,52.6,50.0,30.09,South,187,1.2,0.0,91,0.00,OVC,,0.00,149.0,WeatherDisplay:10.37,2013-06-29 16:18:00,
2013-06-29 08:23:00,52.7,50.1,30.09,SW,225,3.5,3.5,91,0.00,OVC,,0.00,146.0,WeatherDisplay:10.37,2013-06-29 16:23:00,
2013-06-29 08:28:00,52.7,50.1,30.09,SW,227,2.0,2.0,91,0.00,OVC,,0.00,141.0,WeatherDisplay:10.37,2013-06-29 16:28:00,
2013-06-29 08:33:00,52.7,49.8,30.09,WNW,290,3.0,3.0,90,0.00,OVC,,0.00,144.0,WeatherDisplay:10.37,2013-06-29 16:33:00,
2013-06-29 08:38:00,52.7,49.8,30.09,WNW,290,1.2,1.2,90,0.00,OVC,,0.00,153.0,WeatherDisplay:10.37,2013-06-29 16:38:00,
2013-06-29 08:43:00,52.7,50.1,30.09,West,260,3.5,3.5,91,0.00,OVC,,0.00,179.0,WeatherDisplay:10.37,2013-06-29 16:43:00,
2013-06-29 08:48:00,52.8,50.2,30.09,West,260,1.2,1.2,91,0.00,OVC,,0.00,204.0,WeatherDisplay:10.37,2013-06-29 16:48:00,
2013-06-29 08:53:00,52.9,50.3,30.09,SSE,166,5.0,5.0,91,0.00,OVC,,0.00,225.0,WeatherDisplay:10.37,2013-06-29 16:53:00,
2013-06-29 08:58:00,52.9,50.0,30.09,SSE,168,3.5,3.5,90,0.00,OVC,,0.00,237.0,WeatherDisplay:10.37,2013-06-29 16:58:00,
2013-06-29 09:03:00,52.9,50.0,30.09,WSW,241,3.5,3.5,90,0.00,OVC,,0.00,251.0,WeatherDisplay:10.37,2013-06-29 17:03:00,
2013-06-29 09:08:00,53.0,50.4,30.09,SSW,198,3.5,3.5,91,0.00,OVC,,0.00,265.0,WeatherDisplay:10.37,2013-06-29 17:08:00,
2013-06-29 09:13:00,53.1,50.2,30.09,NW,311,1.2,1.2,90,0.00,OVC,,0.00,255.0,WeatherDisplay:10.37,2013-06-29 17:13:00,
2013-06-29 09:18:00,53.2,50.3,30.09,West,278,4.0,4.0,90,0.00,OVC,,0.00,264.0,WeatherDisplay:10.37,2013-06-29 17:18:00,
2013-06-29 09:23:00,53.2,50.3,30.09,SW,229,3.5,3.5,90,0.00,OVC,,0.00,267.0,WeatherDisplay:10.37,2013-06-29 17:23:00,
2013-06-29 09:28:00,53.4,50.5,30.09,West,278,1.0,1.0,90,0.00,OVC,,0.00,257.0,WeatherDisplay:10.37,2013-06-29 17:28:00,
2013-06-29 09:33:00,53.5,50.6,30.09,SW,214,2.3,2.3,90,0.00,OVC,,0.00,257.0,WeatherDisplay:10.37,2013-06-29 17:33:00,
2013-06-29 09:38:00,53.6,50.4,30.08,NW,317,2.3,2.3,89,0.00,OVC,,0.00,258.0,WeatherDisplay:10.37,2013-06-29 17:38:00,
2013-06-29 09:43:00,53.5,50.3,30.08,SW,229,2.3,2.3,89,0.00,OVC,,0.00,265.0,WeatherDisplay:10.37,2013-06-29 17:43:00,
2013-06-29 09:48:00,53.6,50.4,30.08,SSW,194,2.3,2.3,89,0.00,OVC,,0.00,279.0,WeatherDisplay:10.37,2013-06-29 17:48:00,
2013-06-29 09:53:00,53.7,50.5,30.08,SW,219,3.5,3.5,89,0.00,OVC,,0.00,287.0,WeatherDisplay:10.37,2013-06-29 17:53:00,
2013-06-29 09:58:00,53.7,50.8,30.08,WSW,242,3.5,3.5,90,0.00,OVC,,0.00,288.0,WeatherDisplay:10.37,2013-06-29 17:58:00,
2013-06-29 10:03:00,53.9,50.7,30.08,SSW,202,2.3,2.3,89,0.00,OVC,,0.00,308.0,WeatherDisplay:10.37,2013-06-29 18:03:00,
2013-06-29 10:08:00,54.0,50.8,30.08,WSW,242,2.3,2.3,89,0.00,OVC,,0.00,306.0,WeatherDisplay:10.37,2013-06-29 18:08:00,
2013-06-29 10:13:00,54.1,50.9,30.08,West,277,2.0,2.0,89,0.00,OVC,,0.00,315.0,WeatherDisplay:10.37,2013-06-29 18:13:00,
2013-06-29 10:18:00,54.3,50.8,30.08,South,185,3.5,3.5,88,0.00,OVC,,0.00,359.0,WeatherDisplay:10.37,2013-06-29 18:18:00,
2013-06-29 10:23:00,54.3,50.8,30.08,West,263,2.3,2.3,88,0.00,OVC,,0.00,308.0,WeatherDisplay:10.37,2013-06-29 18:23:00,
2013-06-29 10:28:00,54.4,50.9,30.08,South,187,2.3,2.3,88,0.00,OVC,,0.00,311.0,WeatherDisplay:10.37,2013-06-29 18:28:00,
2013-06-29 10:33:00,54.4,50.9,30.08,SW,229,3.5,3.5,88,0.00,OVC,,0.00,346.0,WeatherDisplay:10.37,2013-06-29 18:33:00,
2013-06-29 10:38:00,54.5,51.0,30.08,SSW,192,1.2,1.2,88,0.00,OVC,,0.00,355.0,WeatherDisplay:10.37,2013-06-29 18:38:00,
2013-06-29 10:43:00,54.6,50.8,30.08,SSW,193,1.2,1.2,87,0.00,OVC,,0.00,392.0,WeatherDisplay:10.37,2013-06-29 18:43:00,
2013-06-29 10:48:00,54.7,50.9,30.08,SSW,194,3.5,3.5,87,0.00,OVC,,0.00,399.0,WeatherDisplay:10.37,2013-06-29 18:48:00,
2013-06-29 10:53:00,54.8,51.0,30.08,SSW,211,3.5,3.5,87,0.00,OVC,,0.00,424.0,WeatherDisplay:10.37,2013-06-29 18:53:00,
2013-06-29 10:58:00,55.0,51.5,30.07,West,260,3.5,3.5,88,0.00,OVC,,0.00,454.0,WeatherDisplay:10.37,2013-06-29 18:58:00,
2013-06-29 11:03:00,55.3,51.2,30.07,West,263,5.0,5.0,86,0.00,OVC,,0.00,455.0,WeatherDisplay:10.37,2013-06-29 19:03:00,
2013-06-29 11:08:00,55.2,51.1,30.07,WSW,246,2.3,2.3,86,0.00,OVC,,0.00,483.0,WeatherDisplay:10.37,2013-06-29 19:08:00,
2013-06-29 11:13:00,55.4,51.3,30.07,SSW,205,4.0,4.0,86,0.00,OVC,,0.00,457.0,WeatherDisplay:10.37,2013-06-29 19:13:00,
2013-06-29 11:18:00,55.2,51.1,30.07,West,260,2.3,2.3,86,0.00,OVC,,0.00,469.0,WeatherDisplay:10.37,2013-06-29 19:18:00,
2013-06-29 11:23:00,55.4,51.6,30.07,West,261,3.5,3.5,87,0.00,OVC,,0.00,534.0,WeatherDisplay:10.37,2013-06-29 19:23:00,
2013-06-29 11:28:00,55.8,51.7,30.07,North,349,3.5,3.5,86,0.00,OVC,,0.00,501.0,WeatherDisplay:10.37,2013-06-29 19:28:00,
2013-06-29 11:33:00,56.0,51.6,30.07,NNW,344,3.5,3.5,85,0.00,OVC,,0.00,489.0,WeatherDisplay:10.37,2013-06-29 19:33:00,
2013-06-29 11:38:00,55.8,51.7,30.07,NNW,333,3.5,3.5,86,0.00,OVC,,0.00,482.0,WeatherDisplay:10.37,2013-06-29 19:38:00,
2013-06-29 11:43:00,55.8,51.7,30.07,WSW,257,3.5,3.5,86,0.00,OVC,,0.00,485.0,WeatherDisplay:10.37,2013-06-29 19:43:00,
2013-06-29 11:48:00,56.0,51.6,30.08,NW,306,4.0,4.0,85,0.00,OVC,,0.00,469.0,WeatherDisplay:10.37,2013-06-29 19:48:00,
2013-06-29 11:53:00,55.9,51.8,30.07,North,350,1.2,1.2,86,0.00,OVC,,0.00,471.0,WeatherDisplay:10.37,2013-06-29 19:53:00,
2013-06-29 11:58:00,55.8,51.7,30.07,West,279,3.5,3.5,86,0.00,OVC,,0.00,522.0,WeatherDisplay:10.37,2013-06-29 19:58:00,
2013-06-29 12:03:00,55.8,51.7,30.07,WNW,295,3.5,3.5,86,0.00,OVC,,0.00,566.0,WeatherDisplay:10.37,2013-06-29 20:03:00,
2013-06-29 12:08:00,55.9,51.8,30.07,WNW,299,3.5,3.5,86,0.00,OVC,,0.00,584.0,WeatherDisplay:10.37,2013-06-29 20:08:00,
2013-06-29 12:13:00,56.1,51.7,30.07,South,169,3.5,3.5,85,0.00,OVC,,0.00,566.0,WeatherDisplay:10.37,2013-06-29 20:13:00,
2013-06-29 12:18:00,56.3,51.8,30.07,WNW,292,3.5,3.5,85,0.00,OVC,,0.00,696.0,WeatherDisplay:10.37,2013-06-29 20:18:00,
2013-06-29 12:23:00,56.1,51.7,30.07,NW,314,3.5,3.5,85,0.00,OVC,,0.00,761.0,WeatherDisplay:10.37,2013-06-29 20:23:00,
2013-06-29 12:28:00,56.0,51.9,30.07,NW,324,3.5,3.5,86,0.00,OVC,,0.00,568.0,WeatherDisplay:10.37,2013-06-29 20:28:00,
2013-06-29 12:33:00,56.2,52.1,30.07,SW,225,3.5,3.5,86,0.00,OVC,,0.00,729.0,WeatherDisplay:10.37,2013-06-29 20:33:00,
2013-06-29 12:38:00,56.7,52.6,30.06,NW,323,3.5,3.5,86,0.00,OVC,,0.00,587.0,WeatherDisplay:10.37,2013-06-29 20:38:00,
2013-06-29 12:43:00,57.2,52.7,30.06,South,172,2.3,2.3,85,0.00,OVC,,0.00,643.0,WeatherDisplay:10.37,2013-06-29 20:43:00,
2013-06-29 12:48:00,57.6,52.8,30.06,WNW,298,2.3,2.3,84,0.00,OVC,,0.00,773.0,WeatherDisplay:10.37,2013-06-29 20:48:00,
2013-06-29 12:53:00,58.0,52.9,30.06,WSW,253,3.5,3.5,83,0.00,OVC,,0.00,838.0,WeatherDisplay:10.37,2013-06-29 20:53:00,
2013-06-29 12:58:00,58.4,53.3,30.06,SSE,168,3.5,3.5,83,0.00,OVC,,0.00,598.0,WeatherDisplay:10.37,2013-06-29 20:58:00,
2013-06-29 13:03:00,58.8,53.3,30.06,SSW,198,3.5,3.5,82,0.00,BKN,,0.00,708.0,WeatherDisplay:10.37,2013-06-29 21:03:00,
2013-06-29 13:08:00,59.2,53.7,30.06,WNW,292,3.5,3.5,82,0.00,BKN,,0.00,791.0,WeatherDisplay:10.37,2013-06-29 21:08:00,
2013-06-29 13:13:00,59.2,53.7,30.06,NNW,331,5.8,5.8,82,0.00,BKN,,0.00,775.0,WeatherDisplay:10.37,2013-06-29 21:13:00,
2013-06-29 13:18:00,59.3,53.5,30.06,NNW,340,4.6,4.6,81,0.00,BKN,,0.00,819.0,WeatherDisplay:10.37,2013-06-29 21:18:00,
2013-06-29 13:23:00,59.0,53.2,30.06,WNW,288,3.5,3.5,81,0.00,BKN,,0.00,652.0,WeatherDisplay:10.37,2013-06-29 21:23:00,
2013-06-29 13:28:00,58.9,53.1,30.06,WNW,293,3.5,3.5,81,0.00,BKN,,0.00,610.0,WeatherDisplay:10.37,2013-06-29 21:28:00,
2013-06-29 13:33:00,58.8,53.3,30.06,NNW,333,3.5,3.5,82,0.00,BKN,,0.00,612.0,WeatherDisplay:10.37,2013-06-29 21:33:00,
2013-06-29 13:38:00,58.9,53.7,30.06,South,175,3.5,3.5,83,0.00,BKN,,0.00,621.0,WeatherDisplay:10.37,2013-06-29 21:38:00,
2013-06-29 13:43:00,59.1,53.6,30.05,North,355,4.0,4.0,82,0.00,BKN,,0.00,731.0,WeatherDisplay:10.37,2013-06-29 21:43:00,
2013-06-29 13:48:00,59.1,53.6,30.05,WNW,284,3.5,3.5,82,0.00,BKN,,0.00,633.0,WeatherDisplay:10.37,2013-06-29 21:48:00,
2013-06-29 13:53:00,58.9,53.4,30.05,WNW,295,4.0,4.0,82,0.00,BKN,,0.00,788.0,WeatherDisplay:10.37,2013-06-29 21:53:00,
2013-06-29 13:58:00,59.0,53.5,30.05,West,266,3.5,3.5,82,0.00,BKN,,0.00,977.0,WeatherDisplay:10.37,2013-06-29 21:58:00,
2013-06-29 14:03:00,59.4,53.6,30.05,WNW,288,3.5,3.5,81,0.00,OVC,,0.00,668.0,WeatherDisplay:10.37,2013-06-29 22:03:00,
2013-06-29 14:08:00,59.6,53.8,30.05,WSW,241,3.5,3.5,81,0.00,OVC,,0.00,633.0,WeatherDisplay:10.37,2013-06-29 22:08:00,
2013-06-29 14:13:00,59.8,54.0,30.05,WNW,288,3.5,3.5,81,0.00,OVC,,0.00,745.0,WeatherDisplay:10.37,2013-06-29 22:13:00,
2013-06-29 14:18:00,59.9,53.7,30.05,NW,315,3.5,3.5,80,0.00,OVC,,0.00,619.0,WeatherDisplay:10.37,2013-06-29 22:18:00,
2013-06-29 14:23:00,60.0,54.2,30.05,NW,307,2.3,2.3,81,0.00,OVC,,0.00,701.0,WeatherDisplay:10.37,2013-06-29 22:23:00,
2013-06-29 14:28:00,60.0,53.5,30.05,South,176,3.5,3.5,79,0.00,OVC,,0.00,828.0,WeatherDisplay:10.37,2013-06-29 22:28:00,
2013-06-29 14:33:00,59.9,54.1,30.05,NW,317,2.3,2.3,81,0.00,OVC,,0.00,664.0,WeatherDisplay:10.37,2013-06-29 22:33:00,
2013-06-29 14:38:00,59.9,54.1,30.04,WNW,299,4.6,4.6,81,0.00,OVC,,0.00,650.0,WeatherDisplay:10.37,2013-06-29 22:38:00,
2013-06-29 14:43:00,59.9,54.1,30.05,WNW,289,2.3,2.3,81,0.00,OVC,,0.00,680.0,WeatherDisplay:10.37,2013-06-29 22:43:00,
2013-06-29 14:48:00,60.0,53.8,30.05,South,188,3.5,3.5,80,0.00,OVC,,0.00,636.0,WeatherDisplay:10.37,2013-06-29 22:48:00,
2013-06-29 14:53:00,60.0,53.8,30.04,NW,306,2.3,2.3,80,0.00,OVC,,0.00,631.0,WeatherDisplay:10.37,2013-06-29 22:53:00,
2013-06-29 14:58:00,60.1,53.9,30.04,West,279,4.6,4.6,80,0.00,OVC,,0.00,591.0,WeatherDisplay:10.37,2013-06-29 22:58:00,
2013-06-29 15:03:00,60.1,54.2,30.04,SW,219,3.5,3.5,81,0.00,OVC,,0.00,550.0,WeatherDisplay:10.37,2013-06-29 23:03:00,
2013-06-29 15:09:00,60.2,53.7,30.04,SSW,200,2.3,2.3,79,0.00,OVC,,0.00,550.0,WeatherDisplay:10.37,2013-06-29 23:09:00,
2013-06-29 15:14:00,60.1,53.9,30.04,SSW,196,3.5,3.5,80,0.00,OVC,,0.00,494.0,WeatherDisplay:10.37,2013-06-29 23:14:00,
2013-06-29 15:19:00,59.9,53.4,30.05,WNW,284,4.6,4.6,79,0.00,OVC,,0.00,547.0,WeatherDisplay:10.37,2013-06-29 23:19:00,
2013-06-29 15:24:00,59.5,53.3,30.05,SSW,205,4.6,4.6,80,0.00,OVC,,0.00,520.0,WeatherDisplay:10.37,2013-06-29 23:24:00,
2013-06-29 15:29:00,59.4,53.2,30.05,SSW,203,3.5,3.5,80,0.00,OVC,,0.00,478.0,WeatherDisplay:10.37,2013-06-29 23:29:00,
2013-06-29 15:34:00,59.2,53.0,30.05,ESE,119,2.3,2.3,80,0.00,OVC,,0.00,468.0,WeatherDisplay:10.37,2013-06-29 23:34:00,
2013-06-29 15:39:00,59.0,53.2,30.05,North,355,3.5,3.5,81,0.00,OVC,,0.00,446.0,WeatherDisplay:10.37,2013-06-29 23:39:00,
2013-06-29 15:44:00,58.9,53.1,30.05,NNW,342,3.5,3.5,81,0.00,OVC,,0.00,422.0,WeatherDisplay:10.37,2013-06-29 23:44:00,
2013-06-29 15:49:00,58.8,53.0,30.04,NW,319,3.5,3.5,81,0.00,OVC,,0.00,443.0,WeatherDisplay:10.37,2013-06-29 23:49:00,
2013-06-29 15:54:00,58.7,53.2,30.04,WSW,251,2.3,2.3,82,0.00,OVC,,0.00,446.0,WeatherDisplay:10.37,2013-06-29 23:54:00,
2013-06-29 15:59:00,58.6,52.8,30.04,SSW,205,3.5,3.5,81,0.00,OVC,,0.00,413.0,WeatherDisplay:10.37,2013-06-29 23:59:00,
2013-06-29 16:04:00,58.5,52.7,30.04,West,275,3.5,3.5,81,0.00,OVC,,0.00,396.0,WeatherDisplay:10.37,2013-06-30 00:04:00,
2013-06-29 16:09:00,58.5,53.0,30.04,NW,308,3.5,3.5,82,0.00,OVC,,0.00,399.0,WeatherDisplay:10.37,2013-06-30 00:09:00,
2013-06-29 16:14:00,58.5,53.0,30.04,NW,308,3.5,3.5,82,0.00,OVC,,0.00,392.0,WeatherDisplay:10.37,2013-06-30 00:14:00,
2013-06-29 16:19:00,58.4,52.9,30.04,WSW,257,2.3,2.3,82,0.00,OVC,,0.00,388.0,WeatherDisplay:10.37,2013-06-30 00:19:00,
2013-06-29 16:24:00,58.7,53.5,30.04,SSE,168,3.5,3.5,83,0.00,OVC,,0.00,851.0,WeatherDisplay:10.37,2013-06-30 00:24:00,
2013-06-29 16:29:00,59.1,53.6,30.04,WSW,254,3.5,3.5,82,0.00,OVC,,0.00,708.0,WeatherDisplay:10.37,2013-06-30 00:29:00,
2013-06-29 16:34:00,59.6,53.8,30.03,WSW,257,4.0,4.0,81,0.00,OVC,,0.00,680.0,WeatherDisplay:10.37,2013-06-30 00:34:00,
2013-06-29 16:39:00,59.8,53.6,30.03,South,182,3.5,3.5,80,0.00,OVC,,0.00,659.0,WeatherDisplay:10.37,2013-06-30 00:39:00,
2013-06-29 16:44:00,59.8,53.6,30.03,South,173,3.5,3.5,80,0.00,OVC,,0.00,668.0,WeatherDisplay:10.37,2013-06-30 00:44:00,
2013-06-29 16:49:00,59.7,53.2,30.03,SSW,192,6.9,6.9,79,0.00,OVC,,0.00,686.0,WeatherDisplay:10.37,2013-06-30 00:49:00,
2013-06-29 16:54:00,59.6,53.4,30.03,SSE,161,3.5,3.5,80,0.00,OVC,,0.00,679.0,WeatherDisplay:10.37,2013-06-30 00:54:00,
2013-06-29 16:59:00,59.6,53.4,30.03,WSW,246,3.5,3.5,80,0.00,OVC,,0.00,582.0,WeatherDisplay:10.37,2013-06-30 00:59:00,
2013-06-29 17:04:00,59.8,54.6,30.03,WNW,288,3.5,3.5,83,0.00,BKN,,0.00,599.0,WeatherDisplay:10.37,2013-06-30 01:04:00,
2013-06-29 17:09:00,60.0,53.5,30.03,WSW,240,3.5,3.5,79,0.00,BKN,,0.00,601.0,WeatherDisplay:10.37,2013-06-30 01:09:00,
2013-06-29 17:14:00,59.8,53.6,30.03,WNW,284,3.5,3.5,80,0.00,BKN,,0.00,638.0,WeatherDisplay:10.37,2013-06-30 01:14:00,
2013-06-29 17:19:00,59.8,53.6,30.02,West,264,3.5,3.5,80,0.00,BKN,,0.00,626.0,WeatherDisplay:10.37,2013-06-30 01:19:00,
2013-06-29 17:24:00,59.7,53.2,30.03,West,279,5.8,5.8,79,0.00,BKN,,0.00,596.0,WeatherDisplay:10.37,2013-06-30 01:24:00,
2013-06-29 17:29:00,59.3,53.1,30.02,West,281,3.5,3.5,80,0.00,BKN,,0.00,541.0,WeatherDisplay:10.37,2013-06-30 01:29:00,
2013-06-29 17:34:00,59.0,52.8,30.02,SW,232,3.5,3.5,80,0.00,BKN,,0.00,610.0,WeatherDisplay:10.37,2013-06-30 01:34:00,
2013-06-29 17:39:00,58.9,53.1,30.02,SSW,198,3.5,3.5,81,0.00,BKN,,0.00,578.0,WeatherDisplay:10.37,2013-06-30 01:39:00,
2013-06-29 17:44:00,58.9,52.7,30.02,West,260,4.6,4.6,80,0.00,BKN,,0.00,476.0,WeatherDisplay:10.37,2013-06-30 01:44:00,
2013-06-29 17:49:00,58.9,52.7,30.02,NNW,340,3.5,3.5,80,0.00,BKN,,0.00,522.0,WeatherDisplay:10.37,2013-06-30 01:49:00,
2013-06-29 17:54:00,58.5,52.7,30.02,South,172,4.6,4.6,81,0.00,BKN,,0.00,524.0,WeatherDisplay:10.37,2013-06-30 01:54:00,
2013-06-29 17:59:00,57.9,52.1,30.02,West,279,3.5,3.5,81,0.00,BKN,,0.00,510.0,WeatherDisplay:10.37,2013-06-30 01:59:00,
2013-06-29 18:04:00,57.7,52.2,30.02,SW,234,5.8,5.8,82,0.00,CLR,,0.00,506.0,WeatherDisplay:10.37,2013-06-30 02:04:00,
2013-06-29 18:09:00,57.7,52.6,30.02,South,186,2.3,2.3,83,0.00,CLR,,0.00,540.0,WeatherDisplay:10.37,2013-06-30 02:09:00,
2013-06-29 18:14:00,57.6,52.1,30.02,West,261,5.8,5.8,82,0.00,CLR,,0.00,563.0,WeatherDisplay:10.37,2013-06-30 02:14:00,
2013-06-29 18:19:00,57.5,52.4,30.02,WSW,240,5.8,5.8,83,0.00,CLR,,0.00,555.0,WeatherDisplay:10.37,2013-06-30 02:19:00,
2013-06-29 18:24:00,57.4,52.3,30.02,SE,146,4.6,4.6,83,0.00,CLR,,0.00,526.0,WeatherDisplay:10.37,2013-06-30 02:24:00,
2013-06-29 18:29:00,57.3,52.5,30.02,WSW,244,5.8,5.8,84,0.00,CLR,,0.00,538.0,WeatherDisplay:10.37,2013-06-30 02:29:00,
2013-06-29 18:34:00,57.4,52.3,30.02,South,169,6.0,6.0,83,0.00,CLR,,0.00,555.0,WeatherDisplay:10.37,2013-06-30 02:34:00,
2013-06-29 18:39:00,57.5,52.4,30.02,SW,224,4.0,4.0,83,0.00,CLR,,0.00,552.0,WeatherDisplay:10.37,2013-06-30 02:39:00,
2013-06-29 18:44:00,57.5,52.4,30.02,SW,233,3.5,3.5,83,0.00,CLR,,0.00,543.0,WeatherDisplay:10.37,2013-06-30 02:44:00,
2013-06-29 18:49:00,57.7,52.6,30.02,NW,315,3.5,3.5,83,0.00,CLR,,0.00,503.0,WeatherDisplay:10.37,2013-06-30 02:49:00,
2013-06-29 18:54:00,57.7,52.2,30.02,West,269,6.9,6.9,82,0.00,CLR,,0.00,492.0,WeatherDisplay:10.37,2013-06-30 02:54:00,
2013-06-29 18:59:00,57.7,52.2,30.02,South,180,4.6,4.6,82,0.00,CLR,,0.00,468.0,WeatherDisplay:10.37,2013-06-30 02:59:00,
2013-06-29 19:04:00,57.7,52.2,30.02,SW,222,6.9,6.9,82,0.00,CLR,,0.00,466.0,WeatherDisplay:10.37,2013-06-30 03:04:00,
2013-06-29 19:09:00,57.4,52.3,30.02,WSW,254,4.6,4.6,83,0.00,CLR,,0.00,417.0,WeatherDisplay:10.37,2013-06-30 03:09:00,
2013-06-29 19:14:00,57.0,51.9,30.02,SSW,202,6.9,6.9,83,0.00,CLR,,0.00,246.0,WeatherDisplay:10.37,2013-06-30 03:14:00,
2013-06-29 19:19:00,56.6,51.8,30.02,WNW,302,2.3,2.3,84,0.00,CLR,,0.00,250.0,WeatherDisplay:10.37,2013-06-30 03:19:00,
2013-06-29 19:24:00,56.2,51.7,30.02,South,173,1.2,1.2,85,0.00,CLR,,0.00,257.0,WeatherDisplay:10.37,2013-06-30 03:24:00,
2013-06-29 19:29:00,55.7,51.3,30.02,SW,235,5.8,5.8,85,0.00,CLR,,0.00,216.0,WeatherDisplay:10.37,2013-06-30 03:29:00,
2013-06-29 19:34:00,55.1,51.0,30.02,South,173,2.3,2.3,86,0.00,CLR,,0.00,230.0,WeatherDisplay:10.37,2013-06-30 03:34:00,
2013-06-29 19:39:00,54.7,50.6,30.02,WNW,286,5.8,5.8,86,0.00,CLR,,0.00,185.0,WeatherDisplay:10.37,2013-06-30 03:39:00,
2013-06-29 19:44:00,54.2,50.4,30.02,South,180,3.5,3.5,87,0.00,CLR,,0.00,195.0,WeatherDisplay:10.37,2013-06-30 03:44:00,
2013-06-29 19:49:00,53.9,50.4,30.02,WSW,248,5.8,5.8,88,0.00,CLR,,0.00,163.0,WeatherDisplay:10.37,2013-06-30 03:49:00,
2013-06-29 19:54:00,53.6,50.4,30.02,West,279,4.0,4.0,89,0.00,CLR,,0.00,128.0,WeatherDisplay:10.37,2013-06-30 03:54:00,
2013-06-29 19:59:00,53.5,50.3,30.02,SSW,205,3.5,3.5,89,0.00,CLR,,0.00,146.0,WeatherDisplay:10.37,2013-06-30 03:59:00,
2013-06-29 20:01:00,53.3,50.1,30.02,WSW,252,3.5,3.5,89,0.00,CLR,,0.00,162.0,WeatherDisplay:10.37,2013-06-30 04:01:00,
2013-06-29 20:06:00,53.2,50.0,30.02,South,179,4.6,4.6,89,0.00,FEW,,0.00,127.0,WeatherDisplay:10.37,2013-06-30 04:06:00,
2013-06-29 20:11:00,53.0,50.1,30.02,SW,228,1.2,1.2,90,0.00,FEW,,0.00,107.0,WeatherDisplay:10.37,2013-06-30 04:11:00,
2013-06-29 20:16:00,52.8,49.9,30.02,SW,222,3.5,3.5,90,0.00,FEW,,0.00,111.0,WeatherDisplay:10.37,2013-06-30 04:16:00,
2013-06-29 20:21:00,52.6,49.8,30.02,SW,224,2.0,2.5,90,0.00,OVC,,0.00,123.0,WeatherDisplay:10.37,2013-06-30 04:21:00,
2013-06-29 20:26:00,52.5,49.9,30.02,SW,223,4.6,4.6,91,0.00,OVC,,0.00,102.0,WeatherDisplay:10.37,2013-06-30 04:26:00,
2013-06-29 20:31:00,52.3,49.8,30.02,SSE,166,4.6,4.6,91,0.00,OVC,,0.00,118.0,WeatherDisplay:10.37,2013-06-30 04:31:00,
2013-06-29 20:36:00,52.2,49.7,30.02,South,171,4.6,4.6,91,0.00,OVC,,0.00,127.0,WeatherDisplay:10.37,2013-06-30 04:36:00,
2013-06-29 20:41:00,52.1,49.8,30.02,SSW,193,3.5,3.5,92,0.00,OVC,,0.00,125.0,WeatherDisplay:10.37,2013-06-30 04:41:00,
2013-06-29 20:46:00,52.1,49.8,30.02,WSW,251,3.5,3.5,92,0.00,OVC,,0.00,100.0,WeatherDisplay:10.37,2013-06-30 04:46:00,
2013-06-29 20:51:00,52.2,49.9,30.02,SW,224,2.0,2.0,92,0.00,OVC,,0.00,95.0,WeatherDisplay:10.37,2013-06-30 04:51:00,
2013-06-29 20:56:00,52.3,50.0,30.02,SSW,196,5.8,5.8,92,0.00,OVC,,0.00,86.0,WeatherDisplay:10.37,2013-06-30 04:56:00,
2013-06-29 21:01:00,52.3,49.8,30.02,SW,217,2.3,2.3,91,0.00,SCT,,0.00,84.0,WeatherDisplay:10.37,2013-06-30 05:01:00,
2013-06-29 21:06:00,52.3,49.8,30.02,WSW,249,4.6,4.6,91,0.00,SCT,,0.00,74.0,WeatherDisplay:10.37,2013-06-30 05:06:00,
2013-06-29 21:11:00,52.2,49.7,30.02,SSW,200,4.6,4.6,91,0.00,SCT,,0.00,74.0,WeatherDisplay:10.37,2013-06-30 05:11:00,
2013-06-29 21:16:00,52.2,49.7,30.03,WNW,302,2.3,2.3,91,0.00,SCT,,0.00,70.0,WeatherDisplay:10.37,2013-06-30 05:16:00,
2013-06-29 21:21:00,52.1,49.6,30.02,WNW,292,4.6,4.6,91,0.00,SCT,,0.00,67.0,WeatherDisplay:10.37,2013-06-30 05:21:00,
2013-06-29 21:26:00,52.1,49.6,30.02,WSW,241,1.2,1.2,91,0.00,SCT,,0.00,69.0,WeatherDisplay:10.37,2013-06-30 05:26:00,
2013-06-29 21:31:00,52.0,49.5,30.02,West,263,5.8,5.8,91,0.00,SCT,,0.00,69.0,WeatherDisplay:10.37,2013-06-30 05:31:00,
2013-06-29 21:36:00,51.9,49.4,30.02,SSE,148,3.5,3.5,91,0.00,SCT,,0.00,77.0,WeatherDisplay:10.37,2013-06-30 05:36:00,
2013-06-29 21:41:00,51.9,49.4,30.02,West,267,2.3,2.3,91,0.00,SCT,,0.00,77.0,WeatherDisplay:10.37,2013-06-30 05:41:00,
2013-06-29 21:46:00,51.9,49.4,30.02,SSW,213,5.8,5.8,91,0.00,SCT,,0.00,81.0,WeatherDisplay:10.37,2013-06-30 05:46:00,
2013-06-29 21:51:00,51.9,49.4,30.02,WNW,296,3.5,3.5,91,0.00,SCT,,0.00,86.0,WeatherDisplay:10.37,2013-06-30 05:51:00,
2013-06-29 21:56:00,52.0,49.5,30.02,South,177,3.5,3.5,91,0.00,SCT,,0.00,79.0,WeatherDisplay:10.37,2013-06-30 05:56:00,
2013-06-29 22:01:00,52.0,49.2,30.02,SW,221,3.5,3.5,90,0.00,BKN,,0.00,63.0,WeatherDisplay:10.37,2013-06-30 06:01:00,
2013-06-29 22:06:00,52.0,49.2,30.02,SSW,198,4.6,4.6,90,0.00,BKN,,0.00,54.0,WeatherDisplay:10.37,2013-06-30 06:06:00,
2013-06-29 22:11:00,51.9,49.1,30.03,SSW,211,6.0,6.0,90,0.00,BKN,,0.00,49.0,WeatherDisplay:10.37,2013-06-30 06:11:00,
2013-06-29 22:16:00,51.8,49.0,30.03,SSW,202,3.5,3.5,90,0.00,BKN,,0.00,40.0,WeatherDisplay:10.37,2013-06-30 06:16:00,
2013-06-29 22:21:00,51.7,48.9,30.03,SW,231,3.5,3.5,90,0.00,BKN,,0.00,33.0,WeatherDisplay:10.37,2013-06-30 06:21:00,
2013-06-29 22:26:00,51.5,49.0,30.03,SW,234,4.6,4.6,91,0.00,BKN,,0.00,30.0,WeatherDisplay:10.37,2013-06-30 06:26:00,
2013-06-29 22:31:00,51.5,49.0,30.03,South,177,4.6,4.6,91,0.00,BKN,,0.00,26.0,WeatherDisplay:10.37,2013-06-30 06:31:00,
2013-06-29 22:36:00,51.4,48.6,30.03,SW,229,6.9,6.9,90,0.00,BKN,,0.00,23.0,WeatherDisplay:10.37,2013-06-30 06:36:00,
2013-06-29 22:40:00,51.4,48.9,30.03,WNW,284,3.5,3.5,91,0.00,BKN,,0.00,19.0,WeatherDisplay:10.37,2013-06-30 06:40:00,
2013-06-29 22:45:00,51.3,48.8,30.03,SSW,209,3.5,3.5,91,0.00,BKN,,0.00,16.0,WeatherDisplay:10.37,2013-06-30 06:45:00,
2013-06-29 22:50:00,51.1,48.6,30.03,WSW,255,5.8,5.8,91,0.00,BKN,,0.00,14.0,WeatherDisplay:10.37,2013-06-30 06:50:00,
2013-06-29 22:55:00,51.1,48.6,30.03,SSE,153,3.5,3.5,91,0.00,BKN,,0.00,11.0,WeatherDisplay:10.37,2013-06-30 06:55:00,
2013-06-29 23:00:00,51.0,48.5,30.03,SSW,211,3.5,3.5,91,0.00,BKN,,0.00,9.0,WeatherDisplay:10.37,2013-06-30 07:00:00,
2013-06-29 23:05:00,51.0,48.5,30.03,NW,314,3.5,3.5,91,0.00,OVC,,0.00,7.0,WeatherDisplay:10.37,2013-06-30 07:05:00,
2013-06-29 23:10:00,51.0,48.5,30.03,SW,223,3.5,3.5,91,0.00,OVC,,0.00,5.0,WeatherDisplay:10.37,2013-06-30 07:10:00,
2013-06-29 23:15:00,51.0,48.2,30.03,WSW,246,3.5,3.5,90,0.00,OVC,,0.00,0.0,WeatherDisplay:10.37,2013-06-30 07:15:00,
2013-06-29 23:20:00,51.0,48.2,30.03,WSW,238,3.5,3.5,90,0.00,OVC,,0.00,0.0,WeatherDisplay:10.37,2013-06-30 07:20:00,
2013-06-29 23:25:00,51.1,48.3,30.03,WNW,296,1.2,1.2,90,0.00,OVC,,0.00,0.0,WeatherDisplay:10.37,2013-06-30 07:25:00,
2013-06-29 23:30:00,51.1,48.3,30.03,SW,223,4.6,4.6,90,0.00,OVC,,0.00,0.0,WeatherDisplay:10.37,2013-06-30 07:30:00,
2013-06-29 23:35:00,51.2,48.4,30.03,SW,218,6.9,6.9,90,0.00,OVC,,0.00,0.0,WeatherDisplay:10.37,2013-06-30 07:35:00,
2013-06-29 23:40:00,51.3,48.5,30.03,SSW,200,3.5,3.5,90,0.00,OVC,,0.00,0.0,WeatherDisplay:10.37,2013-06-30 07:40:00,
2013-06-29 23:45:00,51.4,48.3,30.04,SSW,213,4.6,4.6,89,0.00,OVC,,0.00,0.0,WeatherDisplay:10.37,2013-06-30 07:45:00,
2013-06-29 23:50:00,51.4,48.6,30.04,WSW,257,2.0,2.0,90,0.00,OVC,,0.00,0.0,WeatherDisplay:10.37,2013-06-30 07:50:00,
2013-06-29 23:55:00,51.5,48.7,30.04,SW,221,8.0,8.0,90,0.00,OVC,,0.00,0.0,WeatherDisplay:10.37,2013-06-30 07:55:00,